sensor_id;sensor_type;location;lat;lon;timestamp;pressure;altitude;pressure_sealevel;temperature;humidity
41830;BME280;38614;43.472;23.936;2023-04-04T00:02:22;99092.53;;;7.63;100.00
41830;BME280;38614;43.472;23.936;2023-04-04T00:05:14;99092.69;;;7.51;100.00
41830;BME280;38614;43.472;23.936;2023-04-04T00:08:04;99091.09;;;7.50;100.00
41830;BME280;38614;43.472;23.936;2023-04-04T00:11:01;99060.31;;;7.22;100.00
41830;BME280;38614;43.472;23.936;2023-04-04T00:13:49;99079.25;;;7.27;100.00
41830;BME280;38614;43.472;23.936;2023-04-04T00:16:37;99094.59;;;7.28;100.00
41830;BME280;38614;43.472;23.936;2023-04-04T00:19:25;99072.31;;;7.13;100.00
41830;BME280;38614;43.472;23.936;2023-04-04T00:22:12;99071.72;;;7.24;100.00
41830;BME280;38614;43.472;23.936;2023-04-04T00:25:00;99057.88;;;7.17;100.00
41830;BME280;38614;43.472;23.936;2023-04-04T00:27:48;99068.91;;;7.20;100.00
41830;BME280;38614;43.472;23.936;2023-04-04T00:30:36;99059.38;;;7.14;100.00
41830;BME280;38614;43.472;23.936;2023-04-04T00:33:24;99023.97;;;6.90;100.00
41830;BME280;38614;43.472;23.936;2023-04-04T00:36:12;99061.97;;;7.07;100.00
41830;BME280;38614;43.472;23.936;2023-04-04T00:39:00;99055.78;;;7.10;100.00
41830;BME280;38614;43.472;23.936;2023-04-04T00:41:48;99041.94;;;7.06;100.00
41830;BME280;38614;43.472;23.936;2023-04-04T00:44:36;99047.09;;;7.08;100.00
41830;BME280;38614;43.472;23.936;2023-04-04T00:47:28;99073.31;;;7.05;100.00
41830;BME280;38614;43.472;23.936;2023-04-04T00:50:17;99065.09;;;7.05;100.00
41830;BME280;38614;43.472;23.936;2023-04-04T00:53:05;99022.59;;;6.80;100.00
41830;BME280;38614;43.472;23.936;2023-04-04T00:55:53;99042.53;;;6.96;100.00
41830;BME280;38614;43.472;23.936;2023-04-04T00:58:42;99028.78;;;6.77;100.00
41830;BME280;38614;43.472;23.936;2023-04-04T01:01:30;99057.63;;;6.86;100.00
41830;BME280;38614;43.472;23.936;2023-04-04T01:04:19;98998.22;;;6.59;100.00
41830;BME280;38614;43.472;23.936;2023-04-04T01:07:07;99037.25;;;6.68;100.00
41830;BME280;38614;43.472;23.936;2023-04-04T01:09:56;99016.53;;;6.71;100.00
41830;BME280;38614;43.472;23.936;2023-04-04T01:12:44;99056.56;;;6.72;100.00
41830;BME280;38614;43.472;23.936;2023-04-04T01:15:32;99023.59;;;6.72;100.00
41830;BME280;38614;43.472;23.936;2023-04-04T01:18:21;99052.28;;;6.74;100.00
41830;BME280;38614;43.472;23.936;2023-04-04T01:21:12;99044.00;;;6.71;100.00
41830;BME280;38614;43.472;23.936;2023-04-04T01:24:03;99051.75;;;6.69;100.00
41830;BME280;38614;43.472;23.936;2023-04-04T01:26:59;99034.69;;;6.60;100.00
41830;BME280;38614;43.472;23.936;2023-04-04T01:29:49;99054.44;;;6.65;100.00
41830;BME280;38614;43.472;23.936;2023-04-04T01:33:15;99044.25;;;6.66;100.00
41830;BME280;38614;43.472;23.936;2023-04-04T01:36:09;99043.81;;;6.64;100.00
41830;BME280;38614;43.472;23.936;2023-04-04T01:39:23;99034.56;;;6.52;100.00
41830;BME280;38614;43.472;23.936;2023-04-04T01:42:11;99030.94;;;6.48;100.00
41830;BME280;38614;43.472;23.936;2023-04-04T01:45:02;99041.84;;;6.45;100.00
41830;BME280;38614;43.472;23.936;2023-04-04T01:47:54;99043.81;;;6.44;100.00
41830;BME280;38614;43.472;23.936;2023-04-04T01:50:43;99008.41;;;6.23;100.00
41830;BME280;38614;43.472;23.936;2023-04-04T01:53:31;99018.28;;;6.24;100.00
41830;BME280;38614;43.472;23.936;2023-04-04T01:56:19;99009.50;;;6.19;100.00
41830;BME280;38614;43.472;23.936;2023-04-04T01:59:07;99016.94;;;6.18;100.00
41830;BME280;38614;43.472;23.936;2023-04-04T02:01:55;99022.09;;;6.04;100.00
41830;BME280;38614;43.472;23.936;2023-04-04T02:04:44;98996.97;;;6.02;100.00
41830;BME280;38614;43.472;23.936;2023-04-04T02:07:33;99022.00;;;6.00;100.00
41830;BME280;38614;43.472;23.936;2023-04-04T02:10:22;98983.09;;;5.95;100.00
41830;BME280;38614;43.472;23.936;2023-04-04T02:13:10;98972.69;;;5.69;100.00
41830;BME280;38614;43.472;23.936;2023-04-04T02:16:00;99006.09;;;5.90;100.00
41830;BME280;38614;43.472;23.936;2023-04-04T02:18:48;99000.84;;;5.85;100.00
41830;BME280;38614;43.472;23.936;2023-04-04T02:21:36;99009.88;;;5.86;100.00
41830;BME280;38614;43.472;23.936;2023-04-04T02:24:24;99009.19;;;5.89;100.00
41830;BME280;38614;43.472;23.936;2023-04-04T02:27:12;99002.91;;;5.72;100.00
41830;BME280;38614;43.472;23.936;2023-04-04T02:30:00;98946.97;;;5.42;100.00
41830;BME280;38614;43.472;23.936;2023-04-04T02:32:48;99007.22;;;5.73;100.00
41830;BME280;38614;43.472;23.936;2023-04-04T02:35:39;99004.22;;;5.63;100.00
41830;BME280;38614;43.472;23.936;2023-04-04T02:38:27;99024.41;;;5.70;100.00
41830;BME280;38614;43.472;23.936;2023-04-04T02:41:15;99000.50;;;5.55;100.00
41830;BME280;38614;43.472;23.936;2023-04-04T02:44:03;99006.44;;;5.73;100.00
41830;BME280;38614;43.472;23.936;2023-04-04T02:46:51;98996.38;;;5.61;100.00
41830;BME280;38614;43.472;23.936;2023-04-04T02:49:43;98987.34;;;5.45;100.00
41830;BME280;38614;43.472;23.936;2023-04-04T02:52:32;98993.88;;;5.56;100.00
41830;BME280;38614;43.472;23.936;2023-04-04T02:55:27;99006.00;;;5.55;100.00
41830;BME280;38614;43.472;23.936;2023-04-04T02:58:15;99014.31;;;5.59;100.00
41830;BME280;38614;43.472;23.936;2023-04-04T03:01:03;99002.22;;;5.60;100.00
41830;BME280;38614;43.472;23.936;2023-04-04T03:03:55;99000.50;;;5.55;100.00
41830;BME280;38614;43.472;23.936;2023-04-04T03:06:44;99021.03;;;5.61;100.00
41830;BME280;38614;43.472;23.936;2023-04-04T03:09:34;98982.94;;;5.40;100.00
41830;BME280;38614;43.472;23.936;2023-04-04T03:12:23;99017.84;;;5.59;100.00
41830;BME280;38614;43.472;23.936;2023-04-04T03:15:11;99019.97;;;5.50;100.00
41830;BME280;38614;43.472;23.936;2023-04-04T03:18:02;99012.34;;;5.43;100.00
41830;BME280;38614;43.472;23.936;2023-04-04T03:20:57;99023.66;;;5.58;100.00
41830;BME280;38614;43.472;23.936;2023-04-04T03:23:47;99009.44;;;5.52;100.00
41830;BME280;38614;43.472;23.936;2023-04-04T03:26:35;99036.75;;;5.49;100.00
41830;BME280;38614;43.472;23.936;2023-04-04T03:29:23;99015.53;;;5.46;100.00
41830;BME280;38614;43.472;23.936;2023-04-04T03:32:12;99034.00;;;5.49;100.00
41830;BME280;38614;43.472;23.936;2023-04-04T03:35:00;99028.00;;;5.43;100.00
41830;BME280;38614;43.472;23.936;2023-04-04T03:37:48;99021.38;;;5.44;100.00
41830;BME280;38614;43.472;23.936;2023-04-04T03:40:36;99035.44;;;5.42;100.00
41830;BME280;38614;43.472;23.936;2023-04-04T03:43:31;98973.03;;;4.92;100.00
41830;BME280;38614;43.472;23.936;2023-04-04T03:46:19;99037.63;;;5.37;100.00
41830;BME280;38614;43.472;23.936;2023-04-04T03:49:07;98991.09;;;5.09;100.00
41830;BME280;38614;43.472;23.936;2023-04-04T03:51:55;99011.53;;;5.27;100.00
41830;BME280;38614;43.472;23.936;2023-04-04T03:54:44;99022.69;;;5.34;100.00
41830;BME280;38614;43.472;23.936;2023-04-04T03:57:32;99014.53;;;5.22;100.00
41830;BME280;38614;43.472;23.936;2023-04-04T04:00:21;99018.00;;;5.35;100.00
41830;BME280;38614;43.472;23.936;2023-04-04T04:03:09;99006.84;;;5.28;100.00
41830;BME280;38614;43.472;23.936;2023-04-04T04:05:58;99024.19;;;5.32;100.00
41830;BME280;38614;43.472;23.936;2023-04-04T04:08:46;99034.09;;;5.36;100.00
41830;BME280;38614;43.472;23.936;2023-04-04T04:11:34;98999.94;;;5.18;100.00
41830;BME280;38614;43.472;23.936;2023-04-04T04:14:22;99014.72;;;5.29;100.00
41830;BME280;38614;43.472;23.936;2023-04-04T04:17:10;99033.28;;;5.36;100.00
41830;BME280;38614;43.472;23.936;2023-04-04T04:19:58;99036.22;;;5.43;100.00
41830;BME280;38614;43.472;23.936;2023-04-04T04:22:54;99034.88;;;5.37;100.00
41830;BME280;38614;43.472;23.936;2023-04-04T04:25:42;99037.97;;;5.35;100.00
41830;BME280;38614;43.472;23.936;2023-04-04T04:28:34;99027.25;;;5.30;100.00
41830;BME280;38614;43.472;23.936;2023-04-04T04:31:28;99037.63;;;5.37;100.00
41830;BME280;38614;43.472;23.936;2023-04-04T04:34:16;99023.25;;;5.40;100.00
41830;BME280;38614;43.472;23.936;2023-04-04T04:37:05;98990.22;;;5.21;100.00
41830;BME280;38614;43.472;23.936;2023-04-04T04:40:02;99030.03;;;5.46;100.00
41830;BME280;38614;43.472;23.936;2023-04-04T04:42:58;99010.03;;;5.30;100.00
41830;BME280;38614;43.472;23.936;2023-04-04T04:45:46;99056.75;;;5.49;100.00
41830;BME280;38614;43.472;23.936;2023-04-04T04:48:35;99052.50;;;5.52;100.00
41830;BME280;38614;43.472;23.936;2023-04-04T04:51:24;99058.66;;;5.49;100.00
41830;BME280;38614;43.472;23.936;2023-04-04T04:54:13;99051.69;;;5.51;100.00
41830;BME280;38614;43.472;23.936;2023-04-04T04:57:03;99057.22;;;5.39;100.00
41830;BME280;38614;43.472;23.936;2023-04-04T04:59:51;99081.75;;;5.63;100.00
41830;BME280;38614;43.472;23.936;2023-04-04T05:02:39;99096.06;;;5.57;100.00
41830;BME280;38614;43.472;23.936;2023-04-04T05:05:28;99100.75;;;5.56;100.00
41830;BME280;38614;43.472;23.936;2023-04-04T05:08:22;99091.09;;;5.47;100.00
41830;BME280;38614;43.472;23.936;2023-04-04T05:11:19;99107.38;;;5.55;100.00
41830;BME280;38614;43.472;23.936;2023-04-04T05:14:08;99123.69;;;5.36;100.00
41830;BME280;38614;43.472;23.936;2023-04-04T05:17:03;99108.16;;;5.40;100.00
41830;BME280;38614;43.472;23.936;2023-04-04T05:19:53;99107.47;;;5.43;100.00
41830;BME280;38614;43.472;23.936;2023-04-04T05:22:45;99109.63;;;5.37;100.00
41830;BME280;38614;43.472;23.936;2023-04-04T05:25:41;99096.09;;;5.29;100.00
41830;BME280;38614;43.472;23.936;2023-04-04T05:28:29;99103.28;;;5.33;100.00
41830;BME280;38614;43.472;23.936;2023-04-04T05:31:23;99096.38;;;5.39;100.00
41830;BME280;38614;43.472;23.936;2023-04-04T05:34:12;99068.78;;;5.17;100.00
41830;BME280;38614;43.472;23.936;2023-04-04T05:37:01;99102.28;;;5.26;100.00
41830;BME280;38614;43.472;23.936;2023-04-04T05:39:50;99103.47;;;5.40;100.00
41830;BME280;38614;43.472;23.936;2023-04-04T05:42:38;99106.38;;;5.32;100.00
41830;BME280;38614;43.472;23.936;2023-04-04T05:45:26;99090.47;;;5.09;100.00
41830;BME280;38614;43.472;23.936;2023-04-04T05:48:15;99124.63;;;5.28;100.00
41830;BME280;38614;43.472;23.936;2023-04-04T05:51:08;99086.25;;;5.12;100.00
41830;BME280;38614;43.472;23.936;2023-04-04T05:54:21;99129.97;;;5.36;100.00
41830;BME280;38614;43.472;23.936;2023-04-04T05:57:10;99130.97;;;5.44;100.00
41830;BME280;38614;43.472;23.936;2023-04-04T06:00:07;99113.44;;;5.33;100.00
41830;BME280;38614;43.472;23.936;2023-04-04T06:03:00;99128.38;;;5.35;100.00
41830;BME280;38614;43.472;23.936;2023-04-04T06:05:51;99131.31;;;5.42;100.00
41830;BME280;38614;43.472;23.936;2023-04-04T06:08:40;99157.28;;;5.33;100.00
41830;BME280;38614;43.472;23.936;2023-04-04T06:11:40;99144.81;;;5.35;100.00
41830;BME280;38614;43.472;23.936;2023-04-04T06:14:30;99117.72;;;5.18;100.00
41830;BME280;38614;43.472;23.936;2023-04-04T06:17:39;99139.41;;;5.39;100.00
41830;BME280;38614;43.472;23.936;2023-04-04T06:20:29;99157.81;;;5.38;100.00
41830;BME280;38614;43.472;23.936;2023-04-04T06:23:16;99157.56;;;5.43;100.00
41830;BME280;38614;43.472;23.936;2023-04-04T06:26:07;99157.38;;;5.36;100.00
41830;BME280;38614;43.472;23.936;2023-04-04T06:28:56;99161.53;;;5.46;100.00
41830;BME280;38614;43.472;23.936;2023-04-04T06:31:49;99168.97;;;5.46;100.00
41830;BME280;38614;43.472;23.936;2023-04-04T06:34:46;99080.81;;;5.00;100.00
41830;BME280;38614;43.472;23.936;2023-04-04T06:37:38;99170.56;;;5.47;100.00
41830;BME280;38614;43.472;23.936;2023-04-04T06:40:35;99179.69;;;5.51;100.00
41830;BME280;38614;43.472;23.936;2023-04-04T06:43:24;99160.00;;;5.33;100.00
41830;BME280;38614;43.472;23.936;2023-04-04T06:46:12;99172.84;;;5.44;100.00
41830;BME280;38614;43.472;23.936;2023-04-04T06:48:59;99198.72;;;5.59;100.00
41830;BME280;38614;43.472;23.936;2023-04-04T06:51:47;99202.94;;;5.57;100.00
41830;BME280;38614;43.472;23.936;2023-04-04T06:54:37;99211.78;;;5.50;100.00
41830;BME280;38614;43.472;23.936;2023-04-04T06:57:25;99189.06;;;5.50;100.00
41830;BME280;38614;43.472;23.936;2023-04-04T07:00:14;99200.25;;;5.44;100.00
41830;BME280;38614;43.472;23.936;2023-04-04T07:03:02;99185.69;;;5.40;100.00
41830;BME280;38614;43.472;23.936;2023-04-04T07:05:50;99226.38;;;5.54;100.00
41830;BME280;38614;43.472;23.936;2023-04-04T07:08:37;99212.16;;;5.36;100.00
41830;BME280;38614;43.472;23.936;2023-04-04T07:11:25;99226.06;;;5.43;100.00
41830;BME280;38614;43.472;23.936;2023-04-04T07:14:13;99233.50;;;5.43;100.00
41830;BME280;38614;43.472;23.936;2023-04-04T07:17:01;99231.75;;;5.51;100.00
41830;BME280;38614;43.472;23.936;2023-04-04T07:20:00;99235.19;;;5.48;100.00
41830;BME280;38614;43.472;23.936;2023-04-04T07:22:50;99257.53;;;5.62;100.00
41830;BME280;38614;43.472;23.936;2023-04-04T07:25:39;99237.13;;;5.47;100.00
41830;BME280;38614;43.472;23.936;2023-04-04T07:28:29;99241.94;;;5.50;100.00
41830;BME280;38614;43.472;23.936;2023-04-04T07:31:17;99273.34;;;5.81;100.00
41830;BME280;38614;43.472;23.936;2023-04-04T07:34:05;99277.25;;;5.67;100.00
41830;BME280;38614;43.472;23.936;2023-04-04T07:36:53;99280.56;;;5.73;100.00
41830;BME280;38614;43.472;23.936;2023-04-04T07:39:41;99288.34;;;5.71;100.00
41830;BME280;38614;43.472;23.936;2023-04-04T07:42:29;99294.97;;;5.70;100.00
41830;BME280;38614;43.472;23.936;2023-04-04T07:45:17;99274.09;;;5.53;100.00
41830;BME280;38614;43.472;23.936;2023-04-04T07:48:05;99295.41;;;5.72;100.00
41830;BME280;38614;43.472;23.936;2023-04-04T07:50:53;99296.69;;;5.62;100.00
41830;BME280;38614;43.472;23.936;2023-04-04T07:53:41;99281.94;;;5.67;100.00
41830;BME280;38614;43.472;23.936;2023-04-04T07:56:28;99303.28;;;5.73;100.00
41830;BME280;38614;43.472;23.936;2023-04-04T07:59:17;99305.81;;;5.66;100.00
41830;BME280;38614;43.472;23.936;2023-04-04T08:02:05;99323.63;;;5.72;100.00
41830;BME280;38614;43.472;23.936;2023-04-04T08:04:52;99321.78;;;5.77;100.00
41830;BME280;38614;43.472;23.936;2023-04-04T08:07:40;99316.50;;;5.84;100.00
41830;BME280;38614;43.472;23.936;2023-04-04T08:10:30;99332.84;;;5.92;100.00
41830;BME280;38614;43.472;23.936;2023-04-04T08:13:18;99323.34;;;5.90;100.00
41830;BME280;38614;43.472;23.936;2023-04-04T08:16:06;99334.81;;;5.80;100.00
41830;BME280;38614;43.472;23.936;2023-04-04T08:18:54;99321.09;;;5.67;100.00
41830;BME280;38614;43.472;23.936;2023-04-04T08:21:43;99312.13;;;5.55;100.00
41830;BME280;38614;43.472;23.936;2023-04-04T08:24:31;99317.28;;;5.44;100.00
41830;BME280;38614;43.472;23.936;2023-04-04T08:27:20;99358.09;;;5.73;100.00
41830;BME280;38614;43.472;23.936;2023-04-04T08:30:08;99359.16;;;5.69;100.00
41830;BME280;38614;43.472;23.936;2023-04-04T08:33:03;99344.13;;;5.51;100.00
41830;BME280;38614;43.472;23.936;2023-04-04T08:35:52;99352.31;;;5.63;100.00
41830;BME280;38614;43.472;23.936;2023-04-04T08:38:41;99377.44;;;5.77;100.00
41830;BME280;38614;43.472;23.936;2023-04-04T08:41:29;99365.78;;;5.68;100.00
41830;BME280;38614;43.472;23.936;2023-04-04T08:44:21;99374.25;;;5.63;100.00
41830;BME280;38614;43.472;23.936;2023-04-04T08:47:11;99370.91;;;5.57;100.00
41830;BME280;38614;43.472;23.936;2023-04-04T08:50:06;99377.44;;;5.65;100.00
41830;BME280;38614;43.472;23.936;2023-04-04T08:52:54;99385.31;;;5.66;100.00
41830;BME280;38614;43.472;23.936;2023-04-04T08:55:45;99384.06;;;5.64;100.00
41830;BME280;38614;43.472;23.936;2023-04-04T08:58:34;99386.56;;;5.69;100.00
41830;BME280;38614;43.472;23.936;2023-04-04T09:01:21;99358.25;;;5.53;100.00
41830;BME280;38614;43.472;23.936;2023-04-04T09:04:10;99393.88;;;5.77;100.00
41830;BME280;38614;43.472;23.936;2023-04-04T09:06:58;99392.84;;;5.69;100.00
41830;BME280;38614;43.472;23.936;2023-04-04T09:09:48;99359.63;;;5.59;100.00
41830;BME280;38614;43.472;23.936;2023-04-04T09:12:40;99403.91;;;5.73;100.00
41830;BME280;38614;43.472;23.936;2023-04-04T09:15:28;99393.41;;;5.75;100.00
41830;BME280;38614;43.472;23.936;2023-04-04T09:18:18;99376.53;;;5.61;100.00
41830;BME280;38614;43.472;23.936;2023-04-04T09:21:12;99390.59;;;5.59;100.00
41830;BME280;38614;43.472;23.936;2023-04-04T09:24:00;99394.44;;;5.70;100.00
41830;BME280;38614;43.472;23.936;2023-04-04T09:26:52;99372.66;;;5.62;100.00
41830;BME280;38614;43.472;23.936;2023-04-04T09:29:40;99401.44;;;5.68;100.00
41830;BME280;38614;43.472;23.936;2023-04-04T09:32:28;99387.72;;;5.68;100.00
41830;BME280;38614;43.472;23.936;2023-04-04T09:35:18;99361.91;;;5.44;100.00
41830;BME280;38614;43.472;23.936;2023-04-04T09:38:07;99381.88;;;5.69;100.00
41830;BME280;38614;43.472;23.936;2023-04-04T09:40:55;99389.97;;;5.66;100.00
41830;BME280;38614;43.472;23.936;2023-04-04T09:43:44;99395.59;;;5.69;100.00
41830;BME280;38614;43.472;23.936;2023-04-04T09:46:32;99394.44;;;5.58;100.00
41830;BME280;38614;43.472;23.936;2023-04-04T09:49:23;99398.66;;;5.80;100.00
41830;BME280;38614;43.472;23.936;2023-04-04T09:52:18;99410.41;;;5.81;100.00
41830;BME280;38614;43.472;23.936;2023-04-04T09:55:09;99405.38;;;5.83;100.00
41830;BME280;38614;43.472;23.936;2023-04-04T09:57:57;99403.13;;;5.72;100.00
41830;BME280;38614;43.472;23.936;2023-04-04T10:00:46;99424.47;;;5.91;100.00
41830;BME280;38614;43.472;23.936;2023-04-04T10:03:35;99421.75;;;5.79;100.00
41830;BME280;38614;43.472;23.936;2023-04-04T10:06:25;99432.34;;;5.81;100.00
41830;BME280;38614;43.472;23.936;2023-04-04T10:09:14;99438.19;;;5.67;100.00
41830;BME280;38614;43.472;23.936;2023-04-04T10:12:09;99433.84;;;5.66;100.00
41830;BME280;38614;43.472;23.936;2023-04-04T10:14:58;99446.19;;;5.72;100.00
41830;BME280;38614;43.472;23.936;2023-04-04T10:17:47;99437.28;;;5.87;100.00
41830;BME280;38614;43.472;23.936;2023-04-04T10:20:37;99452.69;;;6.04;100.00
41830;BME280;38614;43.472;23.936;2023-04-04T10:23:25;99445.16;;;6.01;100.00
41830;BME280;38614;43.472;23.936;2023-04-04T10:26:14;99446.41;;;6.04;100.00
41830;BME280;38614;43.472;23.936;2023-04-04T10:29:02;99450.63;;;5.64;100.00
41830;BME280;38614;43.472;23.936;2023-04-04T10:32:01;99453.94;;;5.82;100.00
41830;BME280;38614;43.472;23.936;2023-04-04T10:35:00;99458.88;;;5.52;100.00
41830;BME280;38614;43.472;23.936;2023-04-04T10:37:56;99463.09;;;5.74;100.00
41830;BME280;38614;43.472;23.936;2023-04-04T10:40:47;99469.13;;;5.67;100.00
41830;BME280;38614;43.472;23.936;2023-04-04T10:43:41;99448.47;;;5.58;100.00
41830;BME280;38614;43.472;23.936;2023-04-04T10:46:33;99462.41;;;5.65;100.00
41830;BME280;38614;43.472;23.936;2023-04-04T10:49:21;99468.34;;;5.79;100.00
41830;BME280;38614;43.472;23.936;2023-04-04T10:52:14;99456.94;;;5.77;100.00
41830;BME280;38614;43.472;23.936;2023-04-04T10:55:05;99480.56;;;5.94;100.00
41830;BME280;38614;43.472;23.936;2023-04-04T10:57:54;99466.72;;;5.66;100.00
41830;BME280;38614;43.472;23.936;2023-04-04T11:00:50;99485.34;;;5.85;100.00
41830;BME280;38614;43.472;23.936;2023-04-04T11:04:15;99483.53;;;5.77;100.00
41830;BME280;38614;43.472;23.936;2023-04-04T11:07:10;99499.53;;;5.87;100.00
41830;BME280;38614;43.472;23.936;2023-04-04T11:09:59;99482.41;;;5.78;100.00
41830;BME280;38614;43.472;23.936;2023-04-04T11:12:51;99490.97;;;5.88;100.00
41830;BME280;38614;43.472;23.936;2023-04-04T11:16:03;99492.69;;;5.81;100.00
41830;BME280;38614;43.472;23.936;2023-04-04T11:18:58;99485.25;;;5.81;100.00
41830;BME280;38614;43.472;23.936;2023-04-04T11:21:46;99495.97;;;5.50;100.00
41830;BME280;38614;43.472;23.936;2023-04-04T11:24:41;99496.66;;;5.71;100.00
41830;BME280;38614;43.472;23.936;2023-04-04T11:27:29;99470.88;;;5.60;100.00
41830;BME280;38614;43.472;23.936;2023-04-04T11:30:17;99482.72;;;5.64;100.00
41830;BME280;38614;43.472;23.936;2023-04-04T11:33:05;99496.09;;;5.78;100.00
41830;BME280;38614;43.472;23.936;2023-04-04T11:35:57;99487.53;;;5.79;100.00
41830;BME280;38614;43.472;23.936;2023-04-04T11:38:48;99497.72;;;5.91;100.00
41830;BME280;38614;43.472;23.936;2023-04-04T11:45:05;99479.75;;;5.44;100.00
41830;BME280;38614;43.472;23.936;2023-04-04T11:47:54;99502.25;;;5.75;100.00
41830;BME280;38614;43.472;23.936;2023-04-04T11:50:45;99509.56;;;5.58;100.00
41830;BME280;38614;43.472;23.936;2023-04-04T11:53:36;99511.47;;;5.33;100.00
41830;BME280;38614;43.472;23.936;2023-04-04T11:56:24;99520.59;;;5.25;100.00
41830;BME280;38614;43.472;23.936;2023-04-04T11:59:16;99507.50;;;5.43;100.00
41830;BME280;38614;43.472;23.936;2023-04-04T12:02:05;99515.13;;;5.37;100.00
41830;BME280;38614;43.472;23.936;2023-04-04T12:04:53;99517.06;;;5.37;100.00
41830;BME280;38614;43.472;23.936;2023-04-04T12:07:43;99486.56;;;5.14;100.00
41830;BME280;38614;43.472;23.936;2023-04-04T12:10:33;99492.03;;;5.26;100.00
41830;BME280;38614;43.472;23.936;2023-04-04T12:13:29;99511.38;;;5.42;100.00
41830;BME280;38614;43.472;23.936;2023-04-04T12:16:18;99506.25;;;5.53;100.00
41830;BME280;38614;43.472;23.936;2023-04-04T12:19:06;99512.19;;;5.55;100.00
41830;BME280;38614;43.472;23.936;2023-04-04T12:21:56;99514.63;;;5.68;100.00
41830;BME280;38614;43.472;23.936;2023-04-04T12:24:44;99516.00;;;5.87;100.00
41830;BME280;38614;43.472;23.936;2023-04-04T12:27:32;99522.72;;;5.89;100.00
41830;BME280;38614;43.472;23.936;2023-04-04T12:30:21;99519.31;;;5.92;100.00
41830;BME280;38614;43.472;23.936;2023-04-04T12:33:08;99524.81;;;6.17;100.00
41830;BME280;38614;43.472;23.936;2023-04-04T12:35:56;99490.75;;;5.69;100.00
41830;BME280;38614;43.472;23.936;2023-04-04T12:39:03;99524.78;;;5.80;100.00
41830;BME280;38614;43.472;23.936;2023-04-04T12:41:58;99526.16;;;5.86;100.00
41830;BME280;38614;43.472;23.936;2023-04-04T12:44:46;99519.31;;;6.05;100.00
41830;BME280;38614;43.472;23.936;2023-04-04T12:47:36;99523.84;;;6.37;100.00
41830;BME280;38614;43.472;23.936;2023-04-04T12:50:26;99522.13;;;6.45;100.00
41830;BME280;38614;43.472;23.936;2023-04-04T12:53:15;99521.84;;;6.62;100.00
41830;BME280;38614;43.472;23.936;2023-04-04T12:56:15;99494.69;;;6.45;100.00
41830;BME280;38614;43.472;23.936;2023-04-04T12:59:03;99513.72;;;6.66;100.00
41830;BME280;38614;43.472;23.936;2023-04-04T13:01:55;99506.69;;;6.80;100.00
41830;BME280;38614;43.472;23.936;2023-04-04T13:04:44;99507.50;;;6.81;100.00
41830;BME280;38614;43.472;23.936;2023-04-04T13:07:35;99504.03;;;7.12;100.00
41830;BME280;38614;43.472;23.936;2023-04-04T13:11:02;99468.47;;;7.03;100.00
41830;BME280;38614;43.472;23.936;2023-04-04T13:14:01;99501.59;;;7.38;100.00
41830;BME280;38614;43.472;23.936;2023-04-04T13:17:03;99491.91;;;7.76;100.00
41830;BME280;38614;43.472;23.936;2023-04-04T13:19:52;99483.66;;;7.29;100.00
41830;BME280;38614;43.472;23.936;2023-04-04T13:22:41;99491.25;;;7.04;100.00
41830;BME280;38614;43.472;23.936;2023-04-04T13:25:29;99490.06;;;6.89;100.00
41830;BME280;38614;43.472;23.936;2023-04-04T13:28:17;99502.53;;;6.86;100.00
41830;BME280;38614;43.472;23.936;2023-04-04T13:31:06;99506.91;;;7.03;100.00
41830;BME280;38614;43.472;23.936;2023-04-04T13:33:54;99501.22;;;6.68;100.00
41830;BME280;38614;43.472;23.936;2023-04-04T13:36:42;99514.25;;;6.43;100.00
41830;BME280;38614;43.472;23.936;2023-04-04T13:39:30;99530.56;;;6.52;100.00
41830;BME280;38614;43.472;23.936;2023-04-04T13:42:19;99504.06;;;6.32;100.00
41830;BME280;38614;43.472;23.936;2023-04-04T13:45:09;99536.53;;;6.42;100.00
41830;BME280;38614;43.472;23.936;2023-04-04T13:47:58;99543.97;;;6.29;100.00
41830;BME280;38614;43.472;23.936;2023-04-04T13:50:47;99545.47;;;6.02;100.00
41830;BME280;38614;43.472;23.936;2023-04-04T13:53:37;99512.44;;;5.74;100.00
41830;BME280;38614;43.472;23.936;2023-04-04T13:56:25;99518.34;;;5.76;100.00
41830;BME280;38614;43.472;23.936;2023-04-04T13:59:14;99558.84;;;5.91;100.00
41830;BME280;38614;43.472;23.936;2023-04-04T14:02:02;99568.66;;;5.80;100.00
41830;BME280;38614;43.472;23.936;2023-04-04T14:04:50;99574.34;;;5.75;100.00
41830;BME280;38614;43.472;23.936;2023-04-04T14:07:39;99575.38;;;5.83;100.00
41830;BME280;38614;43.472;23.936;2023-04-04T14:10:27;99571.72;;;5.79;100.00
41830;BME280;38614;43.472;23.936;2023-04-04T14:13:15;99559.59;;;5.67;100.00
41830;BME280;38614;43.472;23.936;2023-04-04T14:16:03;99590.09;;;5.66;100.00
41830;BME280;38614;43.472;23.936;2023-04-04T14:18:51;99598.91;;;5.71;100.00
41830;BME280;38614;43.472;23.936;2023-04-04T14:21:39;99591.56;;;5.51;100.00
41830;BME280;38614;43.472;23.936;2023-04-04T14:24:27;99612.94;;;5.70;100.00
41830;BME280;38614;43.472;23.936;2023-04-04T14:27:14;99612.38;;;5.77;100.00
41830;BME280;38614;43.472;23.936;2023-04-04T14:30:02;99618.53;;;5.73;100.00
41830;BME280;38614;43.472;23.936;2023-04-04T14:32:50;99623.47;;;5.68;100.00
41830;BME280;38614;43.472;23.936;2023-04-04T14:35:38;99615.72;;;5.82;100.00
41830;BME280;38614;43.472;23.936;2023-04-04T14:38:26;99607.09;;;5.59;100.00
41830;BME280;38614;43.472;23.936;2023-04-04T14:41:15;99625.00;;;5.57;100.00
41830;BME280;38614;43.472;23.936;2023-04-04T14:44:03;99628.81;;;5.77;100.00
41830;BME280;38614;43.472;23.936;2023-04-04T14:46:51;99604.09;;;5.40;100.00
41830;BME280;38614;43.472;23.936;2023-04-04T14:49:39;99614.53;;;5.26;100.00
41830;BME280;38614;43.472;23.936;2023-04-04T14:52:27;99655.31;;;5.39;100.00
41830;BME280;38614;43.472;23.936;2023-04-04T14:55:27;99664.09;;;5.66;100.00